Time;durP1;ratioP1;P1;durP2;ratioP2;P2;SDS_P1;SDS_P2;PMS_P1;PMS_P2;Temp;Humidity;BMP_temperature;BMP_pressure;BME280_temperature;BME280_humidity;BME280_pressure;Samples;Min_cycle;Max_cycle;Signal;HPM_P1;HPM_P2
2022/09/08 00:01:15;;;;;;;;;;;21.10;99.90;;;;;;5074079;28;19976;-82
2022/09/08 00:03:41;;;;;;;;;;;21.20;99.90;;;;;;5074052;28;19955;-82
2022/09/08 00:06:09;;;;;;;;;;;21.10;99.90;;;;;;5073304;28;20001;-82
2022/09/08 00:08:34;;;;;;;;;;;21.10;99.90;;;;;;5074019;28;20004;-83
2022/09/08 00:11:05;;;;;;;;;;;21.10;99.90;;;;;;5072344;28;20435;-81
2022/09/08 00:13:32;;;;;;;;;;;21.10;99.90;;;;;;5072590;28;19912;-83
2022/09/08 00:15:57;;;;;;;;;;;21.10;99.90;;;;;;5073060;28;19908;-82
2022/09/08 00:18:23;;;;;;;;;;;21.10;99.90;;;;;;5073374;28;19981;-83
2022/09/08 00:20:49;;;;;;;;;;;21.10;99.90;;;;;;5073719;28;20200;-82
2022/09/08 00:23:14;;;;;;;;;;;21.00;99.90;;;;;;5072477;28;19962;-81
2022/09/08 00:25:40;;;;;;;;;;;21.00;99.90;;;;;;5072899;28;19958;-82
2022/09/08 00:28:05;;;;;;;;;;;21.00;99.90;;;;;;5072982;28;20275;-82
2022/09/08 00:30:31;;;;;;;;;;;21.00;99.90;;;;;;5073509;28;20011;-82
2022/09/08 00:32:57;;;;;;;;;;;21.00;99.90;;;;;;5073556;28;19909;-82
2022/09/08 00:35:22;;;;;;;;;;;21.00;99.90;;;;;;5072019;28;19931;-81
2022/09/08 00:37:52;;;;;;;;;;;21.00;99.90;;;;;;5071334;28;19943;-83
2022/09/08 00:40:18;;;;;;;;;;;21.00;99.90;;;;;;5071959;28;19999;-82
2022/09/08 00:42:43;;;;;;;;;;;21.00;99.90;;;;;;5073317;28;19909;-82
2022/09/08 00:45:15;;;;;;;;;;;21.00;99.90;;;;;;5071773;28;19958;-82
2022/09/08 00:47:43;;;;;;;;;;;21.10;99.90;;;;;;5072400;28;20113;-82
2022/09/08 00:50:12;;;;;;;;;;;21.10;99.90;;;;;;5088677;28;19935;-81
2022/09/08 00:52:44;;;;;;;;;;;21.10;99.90;;;;;;5073157;28;19909;-82
2022/09/08 00:55:10;;;;;;;;;;;21.00;99.90;;;;;;5073005;28;19999;-82
2022/09/08 00:57:36;;;;;;;;;;;21.00;99.90;;;;;;5072195;28;19908;-83
2022/09/08 01:00:03;;;;;;;;;;;21.10;99.90;;;;;;5073046;28;19958;-82
2022/09/08 01:02:29;;;;;;;;;;;21.10;99.90;;;;;;5071634;28;19944;-82
2022/09/08 01:04:57;;;;;;;;;;;21.00;99.90;;;;;;5072822;28;19915;-82
2022/09/08 01:13:06;;;;;;;;;;;21.10;99.90;;;;;;5072792;28;20391;-82
2022/09/08 01:15:32;;;;;;;;;;;21.10;99.90;;;;;;5071204;28;19908;-82
2022/09/08 01:17:58;;;;;;;;;;;21.10;99.90;;;;;;5070958;28;19912;-82
2022/09/08 01:20:28;;;;;;;;;;;21.20;99.90;;;;;;5071416;28;19948;-82
2022/09/08 01:23:05;;;;;;;;;;;21.20;99.90;;;;;;5071308;28;19915;-83
2022/09/08 01:25:49;;;;;;;;;;;21.20;99.90;;;;;;5071002;28;19951;-82
2022/09/08 01:28:21;;;;;;;;;;;21.20;99.90;;;;;;5072479;28;19908;-83
2022/09/08 01:30:47;;;;;;;;;;;21.30;99.90;;;;;;5072555;28;19908;-82
2022/09/08 01:33:13;;;;;;;;;;;21.30;99.90;;;;;;5071828;28;19999;-82
2022/09/08 01:35:39;;;;;;;;;;;21.30;99.90;;;;;;5070554;28;19944;-83
2022/09/08 01:38:05;;;;;;;;;;;21.20;99.90;;;;;;5071054;28;19952;-82
2022/09/08 01:40:30;;;;;;;;;;;21.20;99.90;;;;;;5072422;28;19909;-83
2022/09/08 01:42:56;;;;;;;;;;;21.20;99.90;;;;;;5072379;28;19909;-83
2022/09/08 01:45:23;;;;;;;;;;;21.10;99.90;;;;;;5072229;28;20003;-83
2022/09/08 01:47:49;;;;;;;;;;;20.90;99.90;;;;;;5070233;28;19947;-83
2022/09/08 01:50:14;;;;;;;;;;;20.80;99.90;;;;;;5071069;28;19956;-83
2022/09/08 01:52:40;;;;;;;;;;;20.60;99.90;;;;;;5072320;28;19908;-83
2022/09/08 01:55:05;;;;;;;;;;;20.50;99.90;;;;;;5070905;28;20288;-83
2022/09/08 01:57:31;;;;;;;;;;;20.40;99.90;;;;;;5070224;28;19963;-83
2022/09/08 01:59:56;;;;;;;;;;;20.40;99.90;;;;;;5070908;28;19912;-82
2022/09/08 02:02:22;;;;;;;;;;;20.30;99.90;;;;;;5070922;28;19912;-84
2022/09/08 02:04:47;;;;;;;;;;;20.20;99.90;;;;;;5070936;28;19917;-83
2022/09/08 02:07:13;;;;;;;;;;;20.20;99.90;;;;;;5070212;28;19955;-83
2022/09/08 02:09:38;;;;;;;;;;;20.10;99.90;;;;;;5070893;28;19909;-84
2022/09/08 02:12:04;;;;;;;;;;;20.00;99.90;;;;;;5070910;28;19996;-83
2022/09/08 02:14:29;;;;;;;;;;;20.00;99.90;;;;;;5072019;28;19908;-83
2022/09/08 02:16:55;;;;;;;;;;;19.90;99.90;;;;;;5070510;28;19915;-84
2022/09/08 02:19:20;;;;;;;;;;;19.90;99.90;;;;;;5070743;28;19916;-83
2022/09/08 02:21:46;;;;;;;;;;;19.90;99.90;;;;;;5070795;28;20303;-84
2022/09/08 02:24:11;;;;;;;;;;;19.80;99.90;;;;;;5070892;28;19915;-84
2022/09/08 02:26:38;;;;;;;;;;;19.70;99.90;;;;;;5071359;28;19908;-83
2022/09/08 02:29:08;;;;;;;;;;;19.60;99.90;;;;;;5071355;28;19975;-85
2022/09/08 02:31:33;;;;;;;;;;;19.70;99.90;;;;;;5070882;28;19912;-84
2022/09/08 02:33:58;;;;;;;;;;;19.60;99.90;;;;;;5070903;28;19908;-85
2022/09/08 02:36:24;;;;;;;;;;;19.60;99.90;;;;;;5070190;28;19957;-84
2022/09/08 02:38:50;;;;;;;;;;;19.50;99.90;;;;;;5070916;28;19920;-83
2022/09/08 02:41:16;;;;;;;;;;;19.50;99.90;;;;;;5072407;28;19916;-85
2022/09/08 02:43:41;;;;;;;;;;;19.40;99.90;;;;;;5070801;28;20337;-83
2022/09/08 02:46:08;;;;;;;;;;;19.30;99.90;;;;;;5073083;28;19912;-83
2022/09/08 02:48:34;;;;;;;;;;;19.20;99.90;;;;;;5075316;28;20352;-82
2022/09/08 02:51:03;;;;;;;;;;;19.10;99.90;;;;;;5074163;28;19991;-83
2022/09/08 02:53:29;;;;;;;;;;;19.10;99.90;;;;;;5074063;28;20322;-83
2022/09/08 02:55:55;;;;;;;;;;;19.00;99.90;;;;;;5073375;28;19934;-83
2022/09/08 02:58:21;;;;;;;;;;;18.90;99.90;;;;;;5075050;28;19917;-83
2022/09/08 03:00:47;;;;;;;;;;;19.00;99.90;;;;;;5075240;28;19909;-84
2022/09/08 03:03:12;;;;;;;;;;;19.00;99.90;;;;;;5073935;28;19914;-84
2022/09/08 03:05:37;;;;;;;;;;;19.00;99.90;;;;;;5073288;28;19908;-84
2022/09/08 03:08:03;;;;;;;;;;;19.00;99.90;;;;;;5073638;28;20007;-83
2022/09/08 03:10:29;;;;;;;;;;;19.00;99.90;;;;;;5073817;28;19908;-84
2022/09/08 03:12:55;;;;;;;;;;;19.00;99.90;;;;;;5075057;28;19995;-82
2022/09/08 03:15:21;;;;;;;;;;;19.00;99.90;;;;;;5073563;28;20367;-83
2022/09/08 03:17:47;;;;;;;;;;;19.00;99.90;;;;;;5074212;28;19915;-83
2022/09/08 03:20:12;;;;;;;;;;;19.00;99.90;;;;;;5073684;28;19908;-83
2022/09/08 03:22:38;;;;;;;;;;;19.00;99.90;;;;;;5074837;28;19917;-83
2022/09/08 03:25:04;;;;;;;;;;;19.00;99.90;;;;;;5073441;28;19912;-84
2022/09/08 03:27:29;;;;;;;;;;;19.00;99.90;;;;;;5072715;28;19908;-83
2022/09/08 03:29:55;;;;;;;;;;;19.00;99.90;;;;;;5074783;28;19940;-84
2022/09/08 03:32:21;;;;;;;;;;;19.00;99.90;;;;;;5073422;28;19931;-84
2022/09/08 03:34:46;;;;;;;;;;;19.00;99.90;;;;;;5073422;28;19999;-84
2022/09/08 03:37:12;;;;;;;;;;;19.00;99.90;;;;;;5072637;28;19951;-84
2022/09/08 03:39:37;;;;;;;;;;;19.00;99.90;;;;;;5074533;28;19961;-84
2022/09/08 03:42:03;;;;;;;;;;;19.00;99.90;;;;;;5073285;28;19908;-84
2022/09/08 03:44:28;;;;;;;;;;;18.90;99.90;;;;;;5073171;28;19939;-84
2022/09/08 03:46:54;;;;;;;;;;;18.90;99.90;;;;;;5072316;28;19912;-84
2022/09/08 03:49:19;;;;;;;;;;;18.90;99.90;;;;;;5074429;28;19909;-84
2022/09/08 03:51:45;;;;;;;;;;;18.90;99.90;;;;;;5074345;28;19916;-83
2022/09/08 03:56:54;;;;;;;;;;;19.00;99.90;;;;;;5073210;28;20038;-84
2022/09/08 03:59:20;;;;;;;;;;;19.00;99.90;;;;;;5072923;28;19956;-85
2022/09/08 04:01:45;;;;;;;;;;;19.00;99.90;;;;;;5072832;28;20010;-84
2022/09/08 04:04:11;;;;;;;;;;;19.00;99.90;;;;;;5073185;28;19912;-84
2022/09/08 04:06:37;;;;;;;;;;;19.00;99.90;;;;;;5072064;28;19908;-84
2022/09/08 04:09:02;;;;;;;;;;;19.00;99.90;;;;;;5072871;28;20007;-85
2022/09/08 04:11:28;;;;;;;;;;;19.00;99.90;;;;;;5074034;28;19959;-84
2022/09/08 04:13:53;;;;;;;;;;;19.00;99.90;;;;;;5072693;28;20322;-84
2022/09/08 04:16:19;;;;;;;;;;;19.00;99.90;;;;;;5073129;28;19959;-84
2022/09/08 04:18:45;;;;;;;;;;;19.00;99.90;;;;;;5072502;28;19916;-85
2022/09/08 04:21:10;;;;;;;;;;;19.00;99.90;;;;;;5073731;28;19912;-85
2022/09/08 04:23:36;;;;;;;;;;;19.00;99.90;;;;;;5073702;28;20280;-84
2022/09/08 04:26:03;;;;;;;;;;;19.00;99.90;;;;;;5071917;28;19912;-84
2022/09/08 04:28:29;;;;;;;;;;;19.00;99.90;;;;;;5073756;28;19916;-86
2022/09/08 04:30:54;;;;;;;;;;;19.00;99.90;;;;;;5072696;28;19913;-85
2022/09/08 04:33:20;;;;;;;;;;;19.00;99.90;;;;;;5072439;28;19916;-85
2022/09/08 04:35:45;;;;;;;;;;;19.00;99.90;;;;;;5071659;28;19919;-85
2022/09/08 04:38:11;;;;;;;;;;;19.00;99.90;;;;;;5073332;28;20288;-86
2022/09/08 04:40:36;;;;;;;;;;;19.00;99.90;;;;;;5072247;28;19958;-86
2022/09/08 04:43:02;;;;;;;;;;;19.00;99.90;;;;;;5072198;28;19908;-86
2022/09/08 04:45:27;;;;;;;;;;;19.00;99.90;;;;;;5071988;28;20372;-84
2022/09/08 04:47:53;;;;;;;;;;;19.00;99.90;;;;;;5071407;28;20261;-85
2022/09/08 04:50:18;;;;;;;;;;;19.00;99.90;;;;;;5072536;28;19909;-86
2022/09/08 04:52:44;;;;;;;;;;;18.90;99.90;;;;;;5072036;28;19915;-86
2022/09/08 04:55:10;;;;;;;;;;;18.90;99.90;;;;;;5071908;28;20099;-86
2022/09/08 04:57:36;;;;;;;;;;;19.00;99.90;;;;;;5071267;28;19908;-86
2022/09/08 05:00:03;;;;;;;;;;;19.00;99.90;;;;;;5071954;28;19916;-86
2022/09/08 05:02:29;;;;;;;;;;;19.00;99.90;;;;;;5073452;28;19915;-86
2022/09/08 05:04:54;;;;;;;;;;;19.00;99.90;;;;;;5073225;28;19995;-87
2022/09/08 05:07:20;;;;;;;;;;;19.10;99.90;;;;;;5071183;28;19909;-86
2022/09/08 05:09:45;;;;;;;;;;;19.10;99.90;;;;;;5072407;28;20340;-87
2022/09/08 05:12:10;;;;;;;;;;;19.10;99.90;;;;;;5072234;28;19913;-86
2022/09/08 05:14:36;;;;;;;;;;;19.10;99.90;;;;;;5073337;28;19909;-87
2022/09/08 05:17:02;;;;;;;;;;;19.10;99.90;;;;;;5071484;28;20261;-87
2022/09/08 05:19:27;;;;;;;;;;;19.10;99.90;;;;;;5071535;28;19912;-86
2022/09/08 05:21:53;;;;;;;;;;;19.10;99.90;;;;;;5073367;28;20442;-87
2022/09/08 05:24:19;;;;;;;;;;;19.10;99.90;;;;;;5072157;28;19909;-86
2022/09/08 05:26:44;;;;;;;;;;;19.00;99.90;;;;;;5071363;28;19913;-87
2022/09/08 05:29:10;;;;;;;;;;;19.10;99.90;;;;;;5073534;28;20523;-86
2022/09/08 05:31:35;;;;;;;;;;;19.10;99.90;;;;;;5072168;28;19913;-87
2022/09/08 05:34:01;;;;;;;;;;;19.10;99.90;;;;;;5072023;28;20181;-87
2022/09/08 05:36:36;;;;;;;;;;;19.00;99.90;;;;;;5071487;28;20007;-87
2022/09/08 05:39:02;;;;;;;;;;;19.00;99.90;;;;;;5072086;28;19916;-87
2022/09/08 05:41:29;;;;;;;;;;;19.00;99.90;;;;;;5073530;28;19915;-87
2022/09/08 05:43:55;;;;;;;;;;;19.00;99.90;;;;;;5072851;28;19909;-87
2022/09/08 05:46:22;;;;;;;;;;;18.90;99.90;;;;;;5073031;28;19913;-87
2022/09/08 05:48:47;;;;;;;;;;;18.80;99.90;;;;;;5072624;28;20364;-87
2022/09/08 05:51:17;;;;;;;;;;;18.70;99.90;;;;;;5072371;28;19934;-87
2022/09/08 05:53:43;;;;;;;;;;;18.70;99.90;;;;;;5074239;28;19909;-87
2022/09/08 05:56:08;;;;;;;;;;;18.60;99.90;;;;;;5072017;28;19908;-88
2022/09/08 05:58:34;;;;;;;;;;;18.50;99.90;;;;;;5074144;28;19919;-86
2022/09/08 06:01:01;;;;;;;;;;;18.50;99.90;;;;;;5073072;28;19915;-88
2022/09/08 06:03:27;;;;;;;;;;;18.50;99.90;;;;;;5072820;28;20280;-87
2022/09/08 06:05:54;;;;;;;;;;;18.50;99.90;;;;;;5072912;28;19999;-88
2022/09/08 06:08:21;;;;;;;;;;;18.50;99.90;;;;;;5073098;28;19909;-88
2022/09/08 06:10:50;;;;;;;;;;;18.50;99.90;;;;;;5073212;28;20291;-88
2022/09/08 06:13:16;;;;;;;;;;;18.50;99.90;;;;;;5073592;28;19935;-88
2022/09/08 06:15:41;;;;;;;;;;;18.50;99.90;;;;;;5072422;28;19915;-87
2022/09/08 06:18:07;;;;;;;;;;;18.50;99.90;;;;;;5074330;28;19917;-87
2022/09/08 06:20:32;;;;;;;;;;;18.50;99.90;;;;;;5076251;28;19908;-87
2022/09/08 06:22:58;;;;;;;;;;;18.50;99.90;;;;;;5077903;28;20007;-87
2022/09/08 06:25:23;;;;;;;;;;;18.60;99.90;;;;;;5077317;28;19909;-86
2022/09/08 06:27:54;;;;;;;;;;;18.60;99.90;;;;;;5076384;28;19928;-88
2022/09/08 06:30:20;;;;;;;;;;;18.60;99.90;;;;;;5077265;28;20291;-87
2022/09/08 06:32:52;;;;;;;;;;;18.50;99.90;;;;;;5076619;28;19908;-87
2022/09/08 06:35:21;;;;;;;;;;;18.40;99.90;;;;;;5076385;28;20011;-86
2022/09/08 06:37:53;;;;;;;;;;;18.40;99.90;;;;;;5076048;28;19954;-87
2022/09/08 06:40:27;;;;;;;;;;;18.40;99.90;;;;;;5077034;28;19909;-87
2022/09/08 06:43:12;;;;;;;;;;;18.40;99.90;;;;;;5077328;28;19909;-87
2022/09/08 06:45:42;;;;;;;;;;;18.30;99.90;;;;;;5076554;28;19967;-88
2022/09/08 06:48:14;;;;;;;;;;;18.30;99.90;;;;;;5091282;28;19928;-88
2022/09/08 06:50:52;;;;;;;;;;;18.30;99.90;;;;;;5081327;28;20361;-88
2022/09/08 06:53:21;;;;;;;;;;;18.30;99.90;;;;;;5078140;28;19964;-89
2022/09/08 06:55:52;;;;;;;;;;;18.30;99.90;;;;;;5074248;28;20015;-87
2022/09/08 06:58:44;;;;;;;;;;;18.30;99.90;;;;;;5075050;28;19916;-92
2022/09/08 07:01:15;;;;;;;;;;;18.40;99.90;;;;;;5074579;28;19908;-91
2022/09/08 07:03:52;;;;;;;;;;;18.40;99.90;;;;;;5074093;28;19912;-90
2022/09/08 07:09:46;;;;;;;;;;;18.40;99.90;;;;;;5076696;28;19923;-88
2022/09/08 07:12:23;;;;;;;;;;;18.40;99.90;;;;;;5047471;28;19915;-86
2022/09/08 07:14:51;;;;;;;;;;;18.30;99.90;;;;;;5073518;28;19919;-85
2022/09/08 07:17:19;;;;;;;;;;;18.30;99.90;;;;;;5073198;28;20372;-86
2022/09/08 07:19:53;;;;;;;;;;;18.40;99.90;;;;;;5073782;28;20338;-86
2022/09/08 07:22:31;;;;;;;;;;;18.30;99.90;;;;;;5073720;28;19916;-86
2022/09/08 07:25:06;;;;;;;;;;;18.20;99.90;;;;;;5073770;28;19951;-85
2022/09/08 07:27:32;;;;;;;;;;;18.10;99.90;;;;;;5073170;28;20299;-86
2022/09/08 07:30:00;;;;;;;;;;;18.00;99.90;;;;;;5073991;28;19909;-87
2022/09/08 07:32:30;;;;;;;;;;;17.80;99.90;;;;;;5073163;28;20008;-87
2022/09/08 07:34:58;;;;;;;;;;;17.80;99.90;;;;;;5075430;28;20375;-87
2022/09/08 07:37:24;;;;;;;;;;;17.80;99.90;;;;;;5073314;28;20318;-87
2022/09/08 07:39:52;;;;;;;;;;;17.90;99.90;;;;;;5073979;28;19913;-87
2022/09/08 07:42:17;;;;;;;;;;;18.00;99.90;;;;;;5073832;28;20342;-87
2022/09/08 07:44:43;;;;;;;;;;;18.00;99.90;;;;;;5073540;28;19909;-87
2022/09/08 07:47:14;;;;;;;;;;;18.00;99.90;;;;;;5072844;28;20249;-87
2022/09/08 07:49:46;;;;;;;;;;;18.00;99.90;;;;;;5073675;28;19999;-87
2022/09/08 07:52:32;;;;;;;;;;;18.10;99.90;;;;;;5074705;28;20298;-87
2022/09/08 07:55:24;;;;;;;;;;;18.20;99.90;;;;;;5072974;28;19908;-86
2022/09/08 07:58:04;;;;;;;;;;;18.30;99.90;;;;;;5049531;28;19908;-86
2022/09/08 08:00:41;;;;;;;;;;;18.50;99.90;;;;;;5073455;28;19909;-86
2022/09/08 08:03:17;;;;;;;;;;;18.60;99.90;;;;;;5073360;28;19919;-86
2022/09/08 08:06:01;;;;;;;;;;;18.60;99.90;;;;;;5072551;28;19908;-86
2022/09/08 08:08:45;;;;;;;;;;;18.60;99.90;;;;;;5073097;28;19991;-86
2022/09/08 08:11:23;;;;;;;;;;;18.70;99.90;;;;;;5073092;28;19979;-86
2022/09/08 08:14:03;;;;;;;;;;;18.80;99.90;;;;;;5073001;28;19915;-85
2022/09/08 08:16:30;;;;;;;;;;;18.90;99.90;;;;;;5072076;28;20372;-86
2022/09/08 08:19:22;;;;;;;;;;;19.00;99.90;;;;;;5072940;28;19912;-86
2022/09/08 08:21:53;;;;;;;;;;;19.10;99.90;;;;;;5049742;28;19954;-86
2022/09/08 08:24:28;;;;;;;;;;;19.30;99.90;;;;;;5072842;28;19912;-86
2022/09/08 08:27:09;;;;;;;;;;;19.40;99.90;;;;;;5071881;28;19935;-86
2022/09/08 08:29:43;;;;;;;;;;;19.50;99.90;;;;;;5073960;28;20386;-86
2022/09/08 08:32:14;;;;;;;;;;;19.60;99.90;;;;;;5072601;28;19920;-86
2022/09/08 08:34:48;;;;;;;;;;;19.60;99.90;;;;;;5072642;28;19915;-86
2022/09/08 08:37:20;;;;;;;;;;;19.50;99.90;;;;;;5073055;28;19935;-87
2022/09/08 08:39:48;;;;;;;;;;;19.60;99.90;;;;;;5072475;28;19919;-86
2022/09/08 08:42:13;;;;;;;;;;;19.50;99.90;;;;;;5072279;28;19908;-86
2022/09/08 08:44:42;;;;;;;;;;;19.60;99.90;;;;;;5072520;28;19915;-86
2022/09/08 08:47:23;;;;;;;;;;;19.80;99.90;;;;;;5071565;28;20390;-87
2022/09/08 08:50:00;;;;;;;;;;;20.00;99.90;;;;;;5072381;28;19916;-86
2022/09/08 08:52:38;;;;;;;;;;;20.20;99.90;;;;;;5072593;28;19935;-87
2022/09/08 08:55:15;;;;;;;;;;;20.20;99.90;;;;;;5072439;28;20538;-86
2022/09/08 08:57:44;;;;;;;;;;;20.40;99.90;;;;;;5072829;28;19917;-87
2022/09/08 09:00:15;;;;;;;;;;;20.50;99.90;;;;;;5073267;28;19939;-86
2022/09/08 09:02:40;;;;;;;;;;;20.70;99.90;;;;;;5072552;28;19913;-86
2022/09/08 09:05:13;;;;;;;;;;;20.70;99.90;;;;;;5072115;28;20283;-86
2022/09/08 09:07:57;;;;;;;;;;;20.40;99.90;;;;;;5071700;28;19909;-86
2022/09/08 09:10:38;;;;;;;;;;;20.20;99.90;;;;;;5072257;28;19908;-87
2022/09/08 09:13:22;;;;;;;;;;;20.00;99.90;;;;;;5072153;28;19993;-85
2022/09/08 09:15:50;;;;;;;;;;;19.90;99.90;;;;;;5071347;28;19916;-86
2022/09/08 09:18:15;;;;;;;;;;;19.80;99.90;;;;;;5071840;28;19913;-86
2022/09/08 09:20:55;;;;;;;;;;;19.80;99.90;;;;;;5073401;28;19908;-86
2022/09/08 09:23:34;;;;;;;;;;;19.80;99.90;;;;;;5073108;28;19939;-86
2022/09/08 09:26:01;;;;;;;;;;;19.90;99.90;;;;;;5072495;28;19908;-85
2022/09/08 09:28:30;;;;;;;;;;;21.40;99.90;;;;;;5071730;28;19970;-86
2022/09/08 09:30:58;;;;;;;;;;;22.30;99.90;;;;;;5071886;28;20008;-86
2022/09/08 09:33:42;;;;;;;;;;;21.80;99.90;;;;;;5071803;28;19908;-86
2022/09/08 09:36:27;;;;;;;;;;;21.30;99.90;;;;;;5070920;28;19912;-86
2022/09/08 09:39:05;;;;;;;;;;;21.30;99.90;;;;;;5071643;28;19912;-86
2022/09/08 09:41:39;;;;;;;;;;;21.50;99.90;;;;;;5072828;28;20441;-86
2022/09/08 09:44:14;;;;;;;;;;;21.50;99.90;;;;;;5071452;28;20284;-86
2022/09/08 09:46:51;;;;;;;;;;;21.90;99.90;;;;;;5070656;28;19924;-86
2022/09/08 09:49:28;;;;;;;;;;;22.20;99.90;;;;;;5071407;28;19996;-87
2022/09/08 09:52:03;;;;;;;;;;;22.30;99.90;;;;;;5072764;28;19915;-86
2022/09/08 09:54:34;;;;;;;;;;;21.90;99.90;;;;;;5071159;28;20253;-85
2022/09/08 09:57:19;;;;;;;;;;;21.40;99.90;;;;;;5070791;28;19998;-86
2022/09/08 09:59:56;;;;;;;;;;;21.30;99.90;;;;;;5071374;28;19952;-86
2022/09/08 10:02:28;;;;;;;;;;;21.10;99.90;;;;;;5071409;28;19920;-86
2022/09/08 10:05:12;;;;;;;;;;;21.00;99.90;;;;;;5071298;28;19962;-86
2022/09/08 10:07:48;;;;;;;;;;;21.00;99.90;;;;;;5070885;28;19915;-86
2022/09/08 10:10:20;;;;;;;;;;;21.20;99.90;;;;;;5072582;28;19909;-86
2022/09/08 10:13:04;;;;;;;;;;;21.30;99.90;;;;;;5071405;28;20407;-86
2022/09/08 10:15:48;;;;;;;;;;;21.50;99.90;;;;;;5071320;28;19909;-89
2022/09/08 10:18:34;;;;;;;;;;;21.70;99.90;;;;;;5071365;28;19917;-85
2022/09/08 10:21:03;;;;;;;;;;;21.60;99.90;;;;;;5070867;28;19915;-85
2022/09/08 10:23:37;;;;;;;;;;;21.80;99.90;;;;;;5071687;28;19963;-85
2022/09/08 10:26:21;;;;;;;;;;;22.10;99.90;;;;;;5072128;28;19908;-84
2022/09/08 10:28:56;;;;;;;;;;;22.20;99.90;;;;;;5081189;28;19908;-89
2022/09/08 10:31:40;;;;;;;;;;;22.50;99.90;;;;;;5091125;28;19998;-84
2022/09/08 10:34:24;;;;;;;;;;;22.70;99.90;;;;;;5092105;28;20010;-85
2022/09/08 10:36:53;;;;;;;;;;;22.50;99.90;;;;;;5090871;28;19915;-85
2022/09/08 10:39:34;;;;;;;;;;;22.30;99.90;;;;;;5091250;28;19912;-85
2022/09/08 10:42:09;;;;;;;;;;;22.20;99.90;;;;;;5091067;28;19914;-85
2022/09/08 10:44:37;;;;;;;;;;;22.00;99.90;;;;;;5091247;28;20002;-85
2022/09/08 10:47:03;;;;;;;;;;;21.80;99.90;;;;;;5090492;28;20003;-85
2022/09/08 10:49:47;;;;;;;;;;;21.90;99.90;;;;;;5091384;28;20362;-85
2022/09/08 10:52:30;;;;;;;;;;;22.10;99.90;;;;;;5090443;28;19908;-86
2022/09/08 10:55:17;;;;;;;;;;;22.50;99.90;;;;;;5088008;28;19931;-91
2022/09/08 10:58:08;;;;;;;;;;;22.70;99.90;;;;;;5090029;28;19908;-89
2022/09/08 11:00:54;;;;;;;;;;;22.80;99.90;;;;;;5074464;28;19919;-89
2022/09/08 11:03:38;;;;;;;;;;;22.70;99.90;;;;;;5090591;28;19998;-89
2022/09/08 11:06:08;;;;;;;;;;;22.50;99.90;;;;;;5090000;28;19908;-89
2022/09/08 11:08:53;;;;;;;;;;;22.30;99.90;;;;;;5077616;28;19935;-86
2022/09/08 11:11:29;;;;;;;;;;;22.40;99.90;;;;;;5093626;28;19915;-87
2022/09/08 11:14:00;;;;;;;;;;;22.50;99.90;;;;;;5094280;28;20318;-86
2022/09/08 11:16:44;;;;;;;;;;;22.60;99.90;;;;;;5092828;28;20288;-86
2022/09/08 11:19:28;;;;;;;;;;;22.80;99.90;;;;;;5094993;28;19954;-85
2022/09/08 11:22:11;;;;;;;;;;;23.00;99.90;;;;;;5094090;28;19913;-86
2022/09/08 11:24:54;;;;;;;;;;;22.90;99.90;;;;;;5094051;28;19908;-87
2022/09/08 11:27:35;;;;;;;;;;;22.80;99.90;;;;;;5093054;28;19908;-85
2022/09/08 11:30:10;;;;;;;;;;;22.60;99.90;;;;;;5093825;28;19912;-86
2022/09/08 11:32:38;;;;;;;;;;;22.40;99.90;;;;;;5093961;28;19909;-86
2022/09/08 11:35:07;;;;;;;;;;;22.20;99.90;;;;;;5093688;28;19908;-86
2022/09/08 11:37:51;;;;;;;;;;;22.10;99.90;;;;;;5094342;28;20007;-86
2022/09/08 11:40:23;;;;;;;;;;;22.10;99.90;;;;;;5093640;28;19913;-85
2022/09/08 11:43:08;;;;;;;;;;;22.10;99.90;;;;;;5093758;28;20334;-86
2022/09/08 11:45:34;;;;;;;;;;;22.00;99.90;;;;;;5094398;28;20002;-85
2022/09/08 11:48:18;;;;;;;;;;;21.70;99.90;;;;;;5093137;28;20003;-86
2022/09/08 11:50:54;;;;;;;;;;;21.70;99.90;;;;;;5093440;28;19908;-85
2022/09/08 11:53:39;;;;;;;;;;;21.80;99.90;;;;;;5093472;28;19908;-85
2022/09/08 11:56:22;;;;;;;;;;;22.30;99.90;;;;;;5093938;28;19908;-86
2022/09/08 11:58:56;;;;;;;;;;;22.60;99.90;;;;;;5093225;28;19912;-86
2022/09/08 12:01:24;;;;;;;;;;;22.70;99.90;;;;;;5093412;28;19919;-85
2022/09/08 12:03:50;;;;;;;;;;;22.60;99.90;;;;;;5093276;28;20014;-86
2022/09/08 12:06:34;;;;;;;;;;;22.50;99.90;;;;;;5092299;28;20094;-86
2022/09/08 12:09:07;;;;;;;;;;;22.40;99.90;;;;;;5093154;28;19908;-87
2022/09/08 12:11:51;;;;;;;;;;;22.40;99.90;;;;;;5094329;28;19908;-87
2022/09/08 12:14:29;;;;;;;;;;;22.40;99.90;;;;;;5093085;28;19908;-85
2022/09/08 12:17:00;;;;;;;;;;;22.60;99.90;;;;;;5091719;28;19915;-87
2022/09/08 12:19:32;;;;;;;;;;;22.80;99.90;;;;;;5093966;28;19919;-87
2022/09/08 12:22:13;;;;;;;;;;;22.90;99.90;;;;;;5092906;28;19908;-85
2022/09/08 12:24:47;;;;;;;;;;;23.10;99.90;;;;;;5092771;28;19914;-87
2022/09/08 12:27:36;;;;;;;;;;;23.30;99.90;;;;;;5092151;28;19908;-86
2022/09/08 12:30:14;;;;;;;;;;;23.60;99.90;;;;;;5092710;28;19951;-86
2022/09/08 12:33:03;;;;;;;;;;;24.00;99.90;;;;;;5092918;28;19957;-86
2022/09/08 12:35:31;;;;;;;;;;;24.00;99.90;;;;;;5092511;28;19947;-85
2022/09/08 12:38:12;;;;;;;;;;;23.70;99.90;;;;;;5092027;28;19944;-86
2022/09/08 12:40:53;;;;;;;;;;;23.50;99.90;;;;;;5092363;28;19966;-86
2022/09/08 12:43:20;;;;;;;;;;;23.80;99.90;;;;;;5093756;28;19914;-86
2022/09/08 12:46:04;;;;;;;;;;;23.90;99.90;;;;;;5091541;28;19915;-86
2022/09/08 12:48:36;;;;;;;;;;;23.90;99.90;;;;;;5092192;28;19920;-86
2022/09/08 12:51:12;;;;;;;;;;;23.70;99.90;;;;;;5092435;28;19908;-85
2022/09/08 12:53:47;;;;;;;;;;;23.60;99.90;;;;;;5092232;28;19923;-85
2022/09/08 12:56:27;;;;;;;;;;;23.70;99.90;;;;;;5091364;28;20359;-85
2022/09/08 12:59:14;;;;;;;;;;;23.80;99.90;;;;;;5092229;28;19934;-86
2022/09/08 13:01:41;;;;;;;;;;;24.00;99.90;;;;;;5092141;28;20003;-87
2022/09/08 13:04:22;;;;;;;;;;;24.30;99.90;;;;;;5092067;28;19908;-84
2022/09/08 13:06:58;;;;;;;;;;;24.30;99.90;;;;;;5091453;28;19908;-84
2022/09/08 13:09:25;;;;;;;;;;;24.20;99.90;;;;;;5091938;28;20025;-85
2022/09/08 13:12:06;;;;;;;;;;;24.30;99.90;;;;;;5093145;28;19916;-85
2022/09/08 13:14:44;;;;;;;;;;;24.30;99.90;;;;;;5091871;28;19962;-84
2022/09/08 13:17:13;;;;;;;;;;;24.80;99.90;;;;;;5091245;28;20390;-85
2022/09/08 13:20:16;;;;;;;;;;;25.40;99.90;;;;;;5091764;28;20375;-84
2022/09/08 13:23:01;;;;;;;;;;;25.50;99.90;;;;;;4994336;28;19993;-85
2022/09/08 13:25:32;;;;;;;;;;;25.10;99.90;;;;;;5065804;28;19909;-85
2022/09/08 13:28:23;;;;;;;;;;;24.70;99.90;;;;;;5091229;28;19958;-85
2022/09/08 13:30:48;;;;;;;;;;;24.70;99.90;;;;;;5091196;28;19934;-86
2022/09/08 13:33:14;;;;;;;;;;;25.00;99.90;;;;;;5092869;28;20334;-86
2022/09/08 13:35:45;;;;;;;;;;;25.10;99.90;;;;;;5090964;28;19916;-84
2022/09/08 13:38:14;;;;;;;;;;;25.40;99.90;;;;;;5091348;28;19961;-85
2022/09/08 13:40:42;;;;;;;;;;;25.50;99.90;;;;;;5091339;28;19912;-86
2022/09/08 13:43:15;;;;;;;;;;;25.60;99.90;;;;;;5092691;28;19909;-86
2022/09/08 13:45:41;;;;;;;;;;;25.60;99.90;;;;;;5090709;28;20345;-85
2022/09/08 13:48:22;;;;;;;;;;;25.40;99.90;;;;;;5091294;28;19955;-85
2022/09/08 13:50:48;;;;;;;;;;;25.30;99.90;;;;;;5092679;28;19908;-84
2022/09/08 13:53:23;;;;;;;;;;;25.10;99.90;;;;;;5091371;28;19908;-86
2022/09/08 13:55:53;;;;;;;;;;;24.90;99.90;;;;;;5091998;28;19908;-85
2022/09/08 13:58:39;;;;;;;;;;;25.10;99.90;;;;;;5091520;28;19908;-86
2022/09/08 14:01:11;;;;;;;;;;;25.20;99.90;;;;;;5091850;28;19908;-86
2022/09/08 14:03:44;;;;;;;;;;;25.30;99.90;;;;;;5091258;28;19909;-85
2022/09/08 14:06:11;;;;;;;;;;;25.20;99.90;;;;;;5090556;28;20353;-85
2022/09/08 14:08:42;;;;;;;;;;;25.00;99.90;;;;;;5091008;28;19961;-84
2022/09/08 14:11:09;;;;;;;;;;;24.90;99.90;;;;;;5092564;28;20485;-86
2022/09/08 14:13:35;;;;;;;;;;;25.00;99.90;;;;;;5092620;28;20300;-84
2022/09/08 14:16:09;;;;;;;;;;;25.20;99.90;;;;;;5091625;28;20002;-85
2022/09/08 14:18:41;;;;;;;;;;;25.50;99.90;;;;;;5091026;28;19919;-85
2022/09/08 14:21:39;;;;;;;;;;;26.00;99.90;;;;;;5090979;28;19961;-84
2022/09/08 14:24:11;;;;;;;;;;;26.10;99.90;;;;;;5035659;28;19961;-86
2022/09/08 14:26:50;;;;;;;;;;;26.70;99.90;;;;;;5090162;28;19908;-85
2022/09/08 14:29:31;;;;;;;;;;;27.30;99.90;;;;;;5091033;28;19998;-86
2022/09/08 14:32:15;;;;;;;;;;;28.10;97.00;;;;;;5091279;28;19923;-85
2022/09/08 14:35:10;;;;;;;;;;;28.70;96.50;;;;;;5092165;28;19912;-85
2022/09/08 14:40:58;;;;;;;;;;;28.60;94.40;;;;;;5000741;28;20408;-91
2022/09/08 14:43:47;;;;;;;;;;;29.30;91.50;;;;;;5078296;28;19908;-87
2022/09/08 14:46:28;;;;;;;;;;;30.40;87.90;;;;;;5075355;28;19908;-89
2022/09/08 14:48:54;;;;;;;;;;;32.20;84.50;;;;;;5076050;28;20408;-88
2022/09/08 14:51:25;;;;;;;;;;;32.10;75.50;;;;;;5077095;28;19959;-88
2022/09/08 14:53:56;;;;;;;;;;;30.80;72.00;;;;;;5076760;28;20364;-87
2022/09/08 14:56:27;;;;;;;;;;;29.10;73.60;;;;;;5075219;28;20054;-85